createdAt,value
2023-05-20T00:12:27.323Z,76.0
2023-05-20T00:25:27.340Z,76.0
2023-05-20T00:38:27.308Z,77.0
2023-05-20T00:51:27.345Z,79.0
2023-05-20T01:04:27.376Z,79.0
2023-05-20T01:17:27.433Z,75.0
2023-05-20T01:30:27.424Z,78.0
2023-05-20T01:43:27.482Z,75.0
2023-05-20T01:56:27.530Z,73.0
2023-05-20T02:09:27.573Z,74.0
2023-05-20T02:22:27.622Z,74.0
2023-05-20T02:35:27.632Z,75.0
2023-05-20T02:48:27.691Z,74.0
2023-05-20T03:01:27.781Z,75.0
2023-05-20T03:14:27.818Z,76.0
2023-05-20T03:27:27.861Z,76.0
2023-05-20T03:40:27.858Z,79.0
2023-05-20T03:53:27.858Z,82.0
2023-05-20T04:06:27.978Z,82.0
2023-05-20T04:19:27.983Z,82.0
2023-05-20T04:32:28.031Z,81.0
2023-05-20T04:45:27.985Z,80.0
2023-05-20T04:58:28.040Z,77.0
2023-05-20T05:11:28.170Z,74.0
2023-05-20T05:24:28.087Z,73.0
2023-05-20T05:37:28.142Z,71.0
2023-05-20T05:50:28.148Z,67.0
2023-05-20T06:03:28.280Z,66.0
2023-05-20T06:16:28.356Z,63.0
2023-05-20T06:29:28.280Z,63.0
2023-05-20T06:42:28.279Z,64.0
2023-05-20T06:55:28.313Z,64.0
2023-05-20T07:08:28.377Z,68.0
2023-05-20T07:21:28.376Z,67.0
2023-05-20T07:34:28.451Z,70.0
2023-05-20T07:47:28.432Z,67.0
2023-05-20T08:00:28.427Z,67.0
2023-05-20T08:13:28.436Z,67.0
2023-05-20T08:26:28.404Z,69.0
2023-05-20T08:39:28.448Z,70.0
2023-05-20T08:52:28.560Z,70.0
2023-05-20T09:05:28.410Z,71.0
2023-05-20T09:18:28.529Z,70.0
2023-05-20T09:31:28.555Z,71.0
2023-05-20T09:44:28.565Z,68.0
2023-05-20T09:57:28.562Z,65.0
2023-05-20T10:10:28.668Z,61.0
2023-05-20T10:23:28.666Z,61.0
2023-05-20T10:36:28.708Z,64.0
2023-05-20T10:49:28.796Z,66.0
2023-05-20T11:02:28.928Z,65.0
2023-05-20T11:15:28.690Z,64.0
2023-05-20T11:28:28.712Z,70.0
2023-05-20T11:41:28.714Z,74.0
2023-05-20T11:54:28.692Z,80.0
2023-05-20T12:07:28.706Z,79.0
2023-05-20T12:20:28.733Z,80.0
2023-05-20T12:33:28.897Z,79.0
2023-05-20T12:46:28.798Z,83.0
2023-05-20T12:59:28.750Z,86.0
2023-05-20T13:12:28.763Z,90.0
2023-05-20T13:25:28.804Z,92.0
2023-05-20T13:38:28.912Z,91.0
2023-05-20T13:51:28.941Z,92.0
2023-05-20T14:04:28.866Z,92.0
2023-05-20T14:17:29.110Z,92.0
2023-05-20T14:30:28.931Z,91.0
2023-05-20T14:43:29.040Z,88.0
2023-05-20T15:04:29.073Z,90.0
2023-05-20T15:17:29.132Z,90.0
2023-05-20T15:31:29.102Z,92.0
2023-05-20T15:44:29.080Z,92.0
2023-05-20T15:57:29.347Z,90.0
2023-05-20T16:10:29.427Z,88.0
2023-05-20T16:23:29.386Z,85.0
2023-05-20T16:36:29.575Z,83.0
2023-05-20T16:49:29.148Z,84.0
2023-05-20T17:02:29.247Z,82.0
2023-05-20T17:15:29.193Z,84.0
2023-05-20T17:28:29.216Z,83.0
2023-05-20T17:41:29.196Z,83.0
2023-05-20T17:54:29.245Z,85.0
2023-05-20T18:07:29.606Z,87.0
2023-05-20T18:20:30.591Z,84.0
2023-05-20T18:33:29.585Z,84.0
2023-05-20T18:49:29.589Z,85.0
2023-05-20T19:04:29.556Z,86.0
2023-05-20T19:17:29.554Z,79.0
2023-05-20T19:30:29.353Z,80.0
2023-05-20T19:43:29.402Z,80.0
2023-05-20T19:56:29.416Z,81.0
2023-05-20T20:09:29.588Z,82.0
2023-05-20T20:31:29.663Z,80.0
2023-05-20T20:44:29.649Z,79.0
2023-05-20T20:57:29.795Z,79.0
2023-05-20T21:10:29.927Z,78.0
2023-05-20T21:23:29.929Z,77.0
2023-05-20T21:36:30.037Z,79.0
2023-05-20T21:49:30.040Z,81.0
2023-05-20T22:02:30.239Z,78.0
2023-05-20T22:15:30.176Z,75.0
2023-05-20T22:28:30.245Z,74.0
2023-05-20T22:41:30.236Z,74.0
2023-05-20T22:54:30.262Z,73.0
2023-05-20T23:07:30.268Z,73.0
2023-05-20T23:20:30.392Z,73.0
2023-05-20T23:33:30.464Z,72.0
2023-05-20T23:46:30.392Z,72.0
2023-05-20T23:59:30.376Z,70.0
